createdAt,value
2022-11-02T00:00:20.792Z,11.5
2022-11-02T00:05:22.693Z,11.4
2022-11-02T00:10:24.539Z,11.5
2022-11-02T00:15:26.436Z,11.5
2022-11-02T00:20:28.395Z,11.5
2022-11-02T00:25:30.274Z,11.5
2022-11-02T00:30:32.294Z,11.4
2022-11-02T00:35:34.232Z,11.4
2022-11-02T00:40:36.139Z,11.5
2022-11-02T00:45:38.072Z,11.5
2022-11-02T00:50:40.223Z,11.5
2022-11-02T00:55:42.072Z,11.5
2022-11-02T01:00:44.219Z,11.5
2022-11-02T01:05:46.857Z,11.4
2022-11-02T01:10:50.287Z,11.4
2022-11-02T01:15:52.639Z,11.3
2022-11-02T01:20:54.798Z,11.3
2022-11-02T01:25:56.674Z,11.3
2022-11-02T01:30:58.621Z,11.3
2022-11-02T01:36:00.533Z,11.4
2022-11-02T01:41:02.757Z,11.4
2022-11-02T01:46:04.658Z,11.4
2022-11-02T01:51:06.800Z,11.4
2022-11-02T01:56:08.730Z,11.3
2022-11-02T02:01:10.955Z,11.3
2022-11-02T02:06:13.039Z,11.2
2022-11-02T02:11:15.035Z,11.2
2022-11-02T02:16:17.064Z,11.2
2022-11-02T02:21:19.021Z,11.2
2022-11-02T02:26:20.915Z,11.3
2022-11-02T02:31:22.785Z,11.3
2022-11-02T02:36:25.151Z,11.2
2022-11-02T02:41:27.201Z,11.2
2022-11-02T02:46:29.229Z,11.2
2022-11-02T02:51:31.205Z,11.2
2022-11-02T02:56:33.199Z,11.2
2022-11-02T03:01:35.435Z,11.2
2022-11-02T03:06:37.694Z,11.2
2022-11-02T03:11:39.540Z,11.2
2022-11-02T03:16:41.420Z,11.1
2022-11-02T03:21:43.549Z,11.2
2022-11-02T03:26:45.630Z,11.1
2022-11-02T03:31:47.557Z,11.2
2022-11-02T03:36:49.757Z,11.3
2022-11-02T03:41:51.784Z,11.3
2022-11-02T03:46:53.685Z,11.3
2022-11-02T03:51:55.689Z,11.4
2022-11-02T03:56:57.699Z,11.3
2022-11-02T04:02:00.393Z,11.3
2022-11-02T04:07:02.795Z,11.3
2022-11-02T04:12:04.731Z,11.3
2022-11-02T04:17:07.056Z,11.3
2022-11-02T04:22:08.993Z,11.3
2022-11-02T04:27:10.888Z,11.3
2022-11-02T04:32:15.607Z,11.2
2022-11-02T04:37:17.753Z,11.2
2022-11-02T04:42:19.990Z,11.1
2022-11-02T04:47:22.119Z,11
2022-11-02T04:52:24.224Z,11
2022-11-02T04:57:26.138Z,10.9
2022-11-02T05:02:29.135Z,10.8
2022-11-02T05:07:31.415Z,10.8
2022-11-02T05:12:33.360Z,10.8
2022-11-02T05:17:35.475Z,10.9
2022-11-02T05:22:37.432Z,10.9
2022-11-02T05:27:39.535Z,10.9
2022-11-02T05:32:41.431Z,10.9
2022-11-02T05:37:43.835Z,11
2022-11-02T05:42:45.943Z,11
2022-11-02T05:47:47.879Z,11.1
2022-11-02T05:52:50.363Z,11.2
2022-11-02T05:57:52.553Z,11.1
2022-11-02T06:02:54.763Z,11.2
2022-11-02T06:07:56.767Z,11.2
2022-11-02T06:12:58.751Z,11.3
2022-11-02T06:18:01.158Z,11.4
2022-11-02T06:23:04.702Z,11.5
2022-11-02T06:28:07.614Z,11.5
2022-11-02T06:33:11.183Z,11.7
2022-11-02T06:38:22.030Z,11.9
2022-11-02T06:43:26.152Z,12
2022-11-02T06:48:37.088Z,12.1
2022-11-02T06:53:39.617Z,12.1
2022-11-02T06:58:41.799Z,12.4
2022-11-02T07:03:44.067Z,12.9
2022-11-02T07:08:46.198Z,13.3
2022-11-02T07:13:48.161Z,13.7
2022-11-02T07:18:50.177Z,14
2022-11-02T07:23:52.814Z,15
2022-11-02T07:29:00.556Z,15.8
2022-11-02T07:34:02.600Z,15.8
2022-11-02T07:39:04.980Z,15.8
2022-11-02T07:44:07.192Z,16.3
2022-11-02T07:49:09.283Z,16
2022-11-02T07:54:11.322Z,15.4
2022-11-02T07:59:13.424Z,14.6
2022-11-02T08:04:15.810Z,15.1
2022-11-02T08:09:19.203Z,15.2
2022-11-02T08:14:21.175Z,15.1
2022-11-02T08:19:23.228Z,15
2022-11-02T08:24:25.682Z,14.2
2022-11-02T08:29:28.553Z,13.8
2022-11-02T08:34:30.515Z,13.8
2022-11-02T08:39:32.753Z,13.7
2022-11-02T08:44:42.461Z,13.7
2022-11-02T08:49:35.602Z,14
2022-11-02T08:54:37.791Z,14
2022-11-02T08:59:39.799Z,14.4
2022-11-02T09:04:41.786Z,14.5
2022-11-02T09:09:43.712Z,14.4
2022-11-02T09:14:46.113Z,14.7
2022-11-02T09:19:48.000Z,14.7
2022-11-02T09:34:51.551Z,15.7
2022-11-02T09:39:53.620Z,17.1
2022-11-02T09:44:55.846Z,17.1
2022-11-02T09:49:57.785Z,17.8
2022-11-02T09:54:59.746Z,18.2
2022-11-02T10:00:02.129Z,22.7
2022-11-02T10:05:04.132Z,22.6
2022-11-02T10:10:06.696Z,21.7
2022-11-02T10:15:08.604Z,21.6
2022-11-02T10:20:10.528Z,21.2
2022-11-02T10:25:12.534Z,19.3
2022-11-02T10:30:14.449Z,17.8
2022-11-02T10:40:21.133Z,16.7
2022-11-02T10:45:23.453Z,16.6
2022-11-02T10:50:25.504Z,16.2
2022-11-02T10:55:29.798Z,16.1
2022-11-02T11:00:31.966Z,16.2
2022-11-02T11:05:34.144Z,16.3
2022-11-02T11:10:40.083Z,15.4
2022-11-02T11:15:50.199Z,15.9
2022-11-02T11:20:42.097Z,15.9
2022-11-02T11:25:44.493Z,17.4
2022-11-02T11:31:02.673Z,17.6
2022-11-02T11:35:55.684Z,17.5
2022-11-02T11:40:57.761Z,18.1
2022-11-02T11:46:09.261Z,18.8
2022-11-02T11:51:06.510Z,21.1
2022-11-02T11:56:17.286Z,23.5
2022-11-02T12:01:13.124Z,25.2
2022-11-02T12:06:15.534Z,25.2
2022-11-02T12:11:23.921Z,23.5
2022-11-02T12:16:27.721Z,23.4
2022-11-02T12:21:36.611Z,20.8
2022-11-02T12:26:38.658Z,20.7
2022-11-02T12:31:41.560Z,19.2
2022-11-02T12:37:41.836Z,19.1
2022-11-02T12:41:45.878Z,18.4
2022-11-02T12:46:51.551Z,18.6
2022-11-02T12:51:53.835Z,18.6
2022-11-02T12:56:57.345Z,17.8
2022-11-02T13:02:01.094Z,17.3
2022-11-02T13:07:04.632Z,17.7
2022-11-02T13:12:07.335Z,17.9
2022-11-02T13:17:09.225Z,17.8
2022-11-02T13:22:11.160Z,17.9
2022-11-02T13:27:40.425Z,18
2022-11-02T13:32:22.460Z,18
2022-11-02T13:37:24.428Z,18
2022-11-02T13:42:26.386Z,17.5
2022-11-02T13:47:28.546Z,17.3
2022-11-02T13:52:30.543Z,17.2
2022-11-02T13:57:32.538Z,17
2022-11-02T14:07:35.537Z,16.7
2022-11-02T14:12:37.500Z,16.7
2022-11-02T14:17:39.574Z,16.7
2022-11-02T14:22:41.519Z,16.7
2022-11-02T14:27:43.640Z,16.7
2022-11-02T14:32:45.910Z,16.7
2022-11-02T14:37:47.884Z,16.5
2022-11-02T14:42:51.160Z,16.4
2022-11-02T14:47:53.320Z,16.2
2022-11-02T14:52:55.301Z,16.1
2022-11-02T14:57:57.706Z,16
2022-11-02T15:02:59.722Z,15.9
2022-11-02T15:08:02.923Z,15.5
2022-11-02T15:13:06.197Z,15.3
2022-11-02T15:18:09.086Z,15.3
2022-11-02T15:23:30.844Z,15
2022-11-02T15:28:15.240Z,15
2022-11-02T15:33:17.415Z,14.9
2022-11-02T15:38:32.703Z,14.7
2022-11-02T15:43:21.457Z,14.7
2022-11-02T15:48:23.660Z,14.6
2022-11-02T15:53:26.644Z,14.4
2022-11-02T15:58:28.573Z,14.3
2022-11-02T16:03:30.582Z,14.3
2022-11-02T16:08:32.577Z,14.2
2022-11-02T16:14:09.684Z,14.1
2022-11-02T16:18:41.613Z,14.1
2022-11-02T16:23:43.769Z,14.1
2022-11-02T16:28:46.142Z,14.1
2022-11-02T16:33:48.069Z,14
2022-11-02T16:38:49.998Z,14
2022-11-02T16:43:51.978Z,14
2022-11-02T16:48:54.047Z,14
2022-11-02T16:53:57.243Z,14
2022-11-02T16:58:59.444Z,14
2022-11-02T17:04:09.143Z,14
2022-11-02T17:09:11.193Z,14
2022-11-02T17:14:13.243Z,13.9
2022-11-02T17:19:18.913Z,13.9
2022-11-02T17:24:20.948Z,13.9
2022-11-02T17:29:23.896Z,13.9
2022-11-02T17:34:25.785Z,13.8
2022-11-02T17:39:28.986Z,13.9
2022-11-02T17:44:31.444Z,13.9
2022-11-02T17:49:33.499Z,13.9
2022-11-02T17:54:35.579Z,13.8
2022-11-02T17:59:37.678Z,13.7
2022-11-02T18:04:40.016Z,13.6
2022-11-02T18:09:42.141Z,13.5
2022-11-02T18:14:44.270Z,13.4
2022-11-02T18:19:46.308Z,13.3
2022-11-02T18:24:48.359Z,13.2
2022-11-02T18:29:51.678Z,13.1
2022-11-02T18:34:54.957Z,13
2022-11-02T18:39:57.302Z,13
2022-11-02T18:44:59.921Z,13
2022-11-02T18:50:03.080Z,12.9
2022-11-02T18:55:05.182Z,12.9
2022-11-02T19:00:07.326Z,12.9
2022-11-02T19:05:09.205Z,12.7
2022-11-02T19:10:11.566Z,12.5
2022-11-02T19:15:14.139Z,12.3
2022-11-02T19:20:17.349Z,12.2
2022-11-02T19:25:19.397Z,12.2
2022-11-02T19:30:24.631Z,12.1
2022-11-02T19:35:27.949Z,12
2022-11-02T19:40:30.349Z,12
2022-11-02T19:45:33.773Z,12.1
2022-11-02T19:50:36.466Z,12.1
2022-11-02T19:55:38.391Z,12.1
2022-11-02T20:00:45.630Z,11.9
2022-11-02T20:05:47.792Z,11.8
2022-11-02T20:10:50.708Z,11.8
2022-11-02T20:15:52.562Z,11.7
2022-11-02T20:20:54.481Z,11.6
2022-11-02T20:25:56.418Z,11.6
2022-11-02T20:30:58.488Z,11.5
2022-11-02T20:41:01.635Z,11.4
2022-11-02T20:46:41.787Z,11.3
2022-11-02T20:51:07.858Z,11.2
2022-11-02T20:56:09.878Z,11.3
2022-11-02T21:01:12.346Z,11.4
2022-11-02T21:06:14.526Z,11.3
2022-11-02T21:11:16.701Z,11.2
2022-11-02T21:16:18.774Z,11.1
2022-11-02T21:21:20.764Z,10.9
2022-11-02T21:26:23.132Z,11
2022-11-02T21:31:25.112Z,11.1
2022-11-02T21:36:27.369Z,11
2022-11-02T21:41:29.384Z,10.9
2022-11-02T21:51:32.442Z,11
2022-11-02T21:56:35.138Z,10.9
2022-11-02T22:01:38.105Z,10.7
2022-11-02T22:06:40.993Z,10.7
2022-11-02T22:11:42.975Z,10.7
2022-11-02T22:16:44.933Z,10.6
2022-11-02T22:21:47.036Z,10.6
2022-11-02T22:26:49.005Z,10.6
2022-11-02T22:31:50.990Z,10.5
2022-11-02T22:36:52.982Z,10.4
2022-11-02T22:41:55.108Z,10.4
2022-11-02T22:46:57.192Z,10.3
2022-11-02T22:51:59.333Z,10.2
2022-11-02T22:57:01.535Z,10.2
2022-11-02T23:02:04.173Z,9.9
2022-11-02T23:07:06.292Z,9.9
2022-11-02T23:12:08.436Z,9.8
2022-11-02T23:17:10.761Z,9.7
2022-11-02T23:22:12.860Z,9.6
2022-11-02T23:27:15.000Z,9.7
2022-11-02T23:32:17.043Z,9.7
2022-11-02T23:37:19.120Z,9.6
2022-11-02T23:42:21.215Z,9.5
2022-11-02T23:47:23.445Z,9.5
2022-11-02T23:52:25.493Z,9.5
2022-11-02T23:57:27.967Z,9.4
